createdAt,value
2019-03-25T00:00:42.348Z,91.20
2019-03-25T00:02:45.321Z,91.00
2019-03-25T00:04:48.338Z,91.20
2019-03-25T00:06:51.373Z,91.30
2019-03-25T00:09:04.889Z,90.90
2019-03-25T00:10:58.976Z,90.70
2019-03-25T00:13:02.004Z,90.80
2019-03-25T00:15:07.963Z,91.30
2019-03-25T00:17:10.998Z,90.90
2019-03-25T00:19:17.029Z,91.00
2019-03-25T00:21:19.991Z,91.10
2019-03-25T00:23:23.097Z,90.40
2019-03-25T00:25:26.057Z,90.50
2019-03-25T00:27:29.012Z,90.60
2019-03-25T00:29:32.034Z,90.30
2019-03-25T00:31:35.232Z,90.10
2019-03-25T00:33:38.211Z,90.60
2019-03-25T00:35:41.143Z,90.10
2019-03-25T00:37:44.054Z,90.10
2019-03-25T00:39:46.897Z,90.10
2019-03-25T00:41:49.867Z,90.10
2019-03-25T00:43:52.654Z,90.10
2019-03-25T00:45:55.789Z,90.50
2019-03-25T00:47:58.817Z,90.60
2019-03-25T00:50:01.848Z,90.80
2019-03-25T00:52:04.980Z,90.90
2019-03-25T00:54:07.921Z,90.70
2019-03-25T00:56:10.796Z,90.70
2019-03-25T00:58:13.696Z,90.90
2019-03-25T01:00:16.709Z,90.90
2019-03-25T01:02:19.599Z,91.10
2019-03-25T01:04:22.551Z,91.60
2019-03-25T01:06:25.727Z,91.60
2019-03-25T01:08:28.699Z,91.90
2019-03-25T01:10:31.739Z,92.10
2019-03-25T01:12:34.609Z,92.30
2019-03-25T01:14:37.579Z,92.50
2019-03-25T01:16:40.614Z,93.10
2019-03-25T01:18:43.558Z,93.10
2019-03-25T01:20:46.661Z,93.30
2019-03-25T01:22:49.630Z,93.70
2019-03-25T01:25:01.356Z,93.20
2019-03-25T01:26:57.385Z,93.30
2019-03-25T01:29:00.346Z,93.40
2019-03-25T01:31:03.453Z,93.40
2019-03-25T01:33:06.329Z,93.70
2019-03-25T01:35:09.217Z,93.90
2019-03-25T01:37:12.369Z,94.10
2019-03-25T01:39:15.408Z,94.10
2019-03-25T01:41:18.314Z,94.10
2019-03-25T01:43:21.414Z,94.00
2019-03-25T01:45:24.310Z,94.40
2019-03-25T01:47:27.201Z,94.30
2019-03-25T01:49:30.181Z,94.40
2019-03-25T01:51:33.187Z,94.80
2019-03-25T01:53:36.166Z,94.70
2019-03-25T01:55:39.018Z,94.70
2019-03-25T01:57:41.984Z,94.70
2019-03-25T01:59:45.080Z,94.70
2019-03-25T02:01:47.979Z,94.80
2019-03-25T02:03:50.930Z,94.90
2019-03-25T02:05:54.022Z,95.10
2019-03-25T02:07:57.076Z,95.30
2019-03-25T02:10:00.198Z,95.50
2019-03-25T02:12:03.303Z,95.50
2019-03-25T02:14:06.258Z,95.50
2019-03-25T02:16:09.207Z,95.60
2019-03-25T02:18:12.242Z,95.50
2019-03-25T02:20:25.918Z,95.50
2019-03-25T02:22:20.147Z,95.60
2019-03-25T02:24:23.043Z,95.40
2019-03-25T02:26:26.131Z,95.30
2019-03-25T02:28:29.030Z,95.50
2019-03-25T02:30:31.915Z,95.50
2019-03-25T02:32:34.932Z,95.40
2019-03-25T02:34:37.822Z,95.50
2019-03-25T02:36:40.768Z,95.60
2019-03-25T02:38:43.733Z,95.40
2019-03-25T02:40:46.702Z,95.60
2019-03-25T02:42:49.815Z,95.50
2019-03-25T02:44:52.770Z,95.80
2019-03-25T02:46:55.796Z,95.70
2019-03-25T02:48:58.840Z,95.70
2019-03-25T02:51:01.640Z,95.80
2019-03-25T02:53:04.678Z,96.00
2019-03-25T02:55:07.787Z,96.00
2019-03-25T02:57:10.793Z,96.20
2019-03-25T02:59:13.650Z,96.10
2019-03-25T03:01:16.650Z,96.40
2019-03-25T03:03:19.615Z,96.40
2019-03-25T03:05:22.722Z,96.40
2019-03-25T03:07:25.758Z,96.40
2019-03-25T03:09:28.796Z,97.00
2019-03-25T03:11:31.753Z,96.50
2019-03-25T03:13:34.791Z,96.80
2019-03-25T03:15:37.806Z,96.90
2019-03-25T03:17:40.850Z,97.20
2019-03-25T03:19:43.890Z,96.90
2019-03-25T03:21:46.916Z,96.90
2019-03-25T03:23:49.887Z,97.20
2019-03-25T03:25:57.628Z,97.00
2019-03-25T03:27:57.406Z,96.90
2019-03-25T03:30:00.818Z,97.00
2019-03-25T03:32:04.036Z,97.00
2019-03-25T03:34:07.014Z,97.10
2019-03-25T03:36:09.936Z,97.00
2019-03-25T03:38:12.967Z,97.20
2019-03-25T03:40:15.992Z,96.60
2019-03-25T03:42:19.028Z,96.80
2019-03-25T03:44:22.149Z,96.10
2019-03-25T03:46:25.174Z,96.00
2019-03-25T03:48:28.132Z,96.30
2019-03-25T03:50:31.103Z,96.40
2019-03-25T03:52:34.971Z,96.30
2019-03-25T03:54:38.845Z,96.20
2019-03-25T03:56:42.033Z,96.40
2019-03-25T03:58:45.752Z,96.10
2019-03-25T04:00:48.807Z,95.80
2019-03-25T04:02:51.756Z,95.70
2019-03-25T04:04:54.748Z,95.70
2019-03-25T04:06:57.760Z,95.90
2019-03-25T04:09:00.737Z,95.70
2019-03-25T04:11:03.652Z,95.60
2019-03-25T04:13:06.775Z,95.60
2019-03-25T04:15:11.189Z,95.50
2019-03-25T04:17:14.138Z,95.30
2019-03-25T04:19:17.182Z,95.30
2019-03-25T04:21:20.293Z,95.60
2019-03-25T04:23:23.243Z,95.30
2019-03-25T04:25:26.279Z,95.30
2019-03-25T04:27:29.280Z,95.40
2019-03-25T04:29:32.273Z,95.30
2019-03-25T04:31:35.282Z,95.40
2019-03-25T04:33:38.259Z,95.70
2019-03-25T04:35:41.305Z,95.90
2019-03-25T04:37:44.336Z,96.10
2019-03-25T04:39:47.295Z,96.10
2019-03-25T04:41:50.326Z,96.10
2019-03-25T04:43:54.499Z,96.20
2019-03-25T04:45:57.695Z,96.30
2019-03-25T04:48:00.735Z,96.40
2019-03-25T04:50:04.302Z,96.40
2019-03-25T04:52:07.259Z,96.50
2019-03-25T04:54:10.217Z,96.40
2019-03-25T04:56:13.251Z,96.50
2019-03-25T04:58:16.024Z,96.20
2019-03-25T05:00:20.624Z,96.40
2019-03-25T05:02:23.643Z,96.40
2019-03-25T05:04:26.546Z,96.40
2019-03-25T05:06:29.480Z,96.40
2019-03-25T05:08:32.534Z,96.50
2019-03-25T05:10:35.568Z,96.40
2019-03-25T05:12:38.595Z,96.30
2019-03-25T05:14:41.557Z,96.40
2019-03-25T05:16:44.520Z,96.50
2019-03-25T05:18:47.547Z,96.50
2019-03-25T05:20:50.434Z,96.40
2019-03-25T05:22:53.473Z,96.70
2019-03-25T05:24:56.419Z,96.50
2019-03-25T05:26:59.291Z,96.40
2019-03-25T05:29:02.069Z,96.60
2019-03-25T05:31:04.994Z,96.60
2019-03-25T05:33:07.931Z,96.50
2019-03-25T05:35:10.978Z,96.20
2019-03-25T05:37:13.867Z,96.30
2019-03-25T05:39:16.897Z,96.50
2019-03-25T05:41:19.787Z,96.40
2019-03-25T05:43:22.734Z,96.50
2019-03-25T05:45:25.733Z,96.40
2019-03-25T05:47:28.808Z,96.20
2019-03-25T05:49:31.753Z,96.30
2019-03-25T05:51:34.841Z,96.10
2019-03-25T05:53:37.749Z,96.10
2019-03-25T05:55:40.953Z,96.10
2019-03-25T05:57:44.063Z,95.90
2019-03-25T05:59:46.875Z,96.10
2019-03-25T06:01:49.726Z,96.30
2019-03-25T06:03:52.558Z,96.20
2019-03-25T06:05:55.643Z,96.10
2019-03-25T06:07:58.523Z,96.00
2019-03-25T06:10:01.418Z,96.10
2019-03-25T06:12:04.320Z,96.10
2019-03-25T06:14:07.184Z,96.20
2019-03-25T06:16:10.124Z,96.10
2019-03-25T06:18:12.903Z,96.10
2019-03-25T06:20:16.192Z,96.10
2019-03-25T06:22:19.226Z,96.10
2019-03-25T06:24:21.944Z,96.10
2019-03-25T06:26:24.754Z,95.80
2019-03-25T06:28:27.543Z,95.80
2019-03-25T06:30:30.512Z,95.80
2019-03-25T06:32:33.307Z,95.40
2019-03-25T06:34:36.175Z,95.10
2019-03-25T06:36:38.966Z,95.20
2019-03-25T06:38:41.768Z,94.20
2019-03-25T06:40:44.691Z,94.40
2019-03-25T06:42:47.567Z,94.30
2019-03-25T06:44:50.445Z,94.20
2019-03-25T06:46:53.226Z,94.00
2019-03-25T06:48:56.002Z,93.60
2019-03-25T06:50:58.824Z,93.30
2019-03-25T06:53:01.833Z,93.30
2019-03-25T06:55:05.868Z,92.60
2019-03-25T06:57:08.727Z,92.40
2019-03-25T06:59:11.505Z,92.50
2019-03-25T07:01:14.366Z,92.40
2019-03-25T07:03:17.118Z,92.00
2019-03-25T07:05:19.998Z,92.10
2019-03-25T07:07:22.787Z,91.80
2019-03-25T07:09:25.569Z,91.70
2019-03-25T07:11:28.345Z,91.50
2019-03-25T07:13:31.250Z,91.50
2019-03-25T07:15:34.095Z,91.70
2019-03-25T07:17:36.871Z,91.10
2019-03-25T07:19:39.721Z,91.30
2019-03-25T07:21:42.502Z,91.30
2019-03-25T07:23:45.279Z,91.40
2019-03-25T07:25:48.074Z,91.20
2019-03-25T07:29:57.521Z,90.30
2019-03-25T07:32:01.312Z,90.90
2019-03-25T07:34:05.194Z,90.50
2019-03-25T07:36:08.763Z,90.50
2019-03-25T07:38:11.534Z,90.30
2019-03-25T07:40:15.337Z,90.40
2019-03-25T07:42:18.942Z,90.50
2019-03-25T07:44:21.718Z,90.30
2019-03-25T07:46:25.284Z,89.80
2019-03-25T07:48:28.207Z,88.90
2019-03-25T07:50:31.786Z,88.80
2019-03-25T07:52:34.598Z,88.00
2019-03-25T07:54:38.185Z,87.60
2019-03-25T07:56:40.962Z,86.60
2019-03-25T07:58:44.541Z,84.00
2019-03-25T08:00:47.400Z,82.10
2019-03-25T08:02:51.087Z,81.30
2019-03-25T08:04:54.677Z,79.20
2019-03-25T08:06:57.452Z,81.10
2019-03-25T08:09:04.002Z,81.00
2019-03-25T08:11:06.343Z,81.70
2019-03-25T08:13:09.918Z,82.10
2019-03-25T08:15:12.797Z,83.10
2019-03-25T08:17:16.387Z,81.60
2019-03-25T08:19:19.187Z,82.50
2019-03-25T08:21:24.977Z,82.40
2019-03-25T08:23:28.003Z,84.50
2019-03-25T08:25:30.866Z,83.30
2019-03-25T08:27:34.383Z,83.30
2019-03-25T08:29:37.187Z,82.20
2019-03-25T08:31:40.759Z,82.10
2019-03-25T08:33:43.614Z,82.50
2019-03-25T08:35:47.197Z,82.60
2019-03-25T08:37:49.975Z,80.50
2019-03-25T08:39:53.673Z,74.20
2019-03-25T08:41:57.384Z,75.30
2019-03-25T08:44:00.947Z,75.10
2019-03-25T08:46:03.839Z,76.00
2019-03-25T08:48:07.480Z,77.40
2019-03-25T08:50:11.143Z,75.40
2019-03-25T08:52:14.746Z,77.20
2019-03-25T08:54:17.523Z,76.50
2019-03-25T08:56:21.163Z,76.90
2019-03-25T08:58:24.762Z,79.30
2019-03-25T09:00:27.675Z,78.90
2019-03-25T09:02:31.226Z,77.50
2019-03-25T09:04:34.042Z,78.10
2019-03-25T09:06:37.704Z,76.00
2019-03-25T09:08:41.269Z,75.60
2019-03-25T09:10:44.151Z,74.60
2019-03-25T09:12:47.714Z,75.90
2019-03-25T09:14:50.503Z,76.30
2019-03-25T09:16:54.113Z,77.10
2019-03-25T09:18:56.882Z,77.20
2019-03-25T09:21:00.473Z,77.40
2019-03-25T09:23:03.259Z,77.20
2019-03-25T09:25:08.051Z,77.20
2019-03-25T09:27:11.635Z,75.10
2019-03-25T09:29:14.419Z,76.30
2019-03-25T09:31:18.536Z,75.10
2019-03-25T09:33:22.664Z,76.20
2019-03-25T09:35:26.370Z,76.90
2019-03-25T09:37:30.046Z,75.40
2019-03-25T09:39:33.601Z,76.00
2019-03-25T09:41:36.421Z,75.10
2019-03-25T09:43:40.146Z,74.40
2019-03-25T09:45:43.783Z,74.60
2019-03-25T09:47:46.575Z,75.70
2019-03-25T09:49:50.139Z,76.90
2019-03-25T09:51:53.086Z,77.10
2019-03-25T09:53:56.702Z,77.50
2019-03-25T09:55:59.597Z,76.80
2019-03-25T09:58:03.218Z,76.30
2019-03-25T10:00:09.685Z,75.80
2019-03-25T10:02:13.344Z,74.60
2019-03-25T10:04:16.900Z,74.00
2019-03-25T10:06:19.752Z,72.80
2019-03-25T10:08:23.352Z,72.70
2019-03-25T10:10:26.139Z,71.20
2019-03-25T10:12:30.260Z,72.10
2019-03-25T10:14:33.839Z,71.80
2019-03-25T10:16:36.611Z,72.70
2019-03-25T10:18:40.280Z,71.60
2019-03-25T10:20:43.921Z,68.90
2019-03-25T10:22:46.659Z,70.00
2019-03-25T10:24:50.209Z,68.90
2019-03-25T10:26:53.030Z,69.00
2019-03-25T10:28:56.588Z,66.20
2019-03-25T10:30:59.378Z,67.40
2019-03-25T10:33:02.973Z,67.00
2019-03-25T10:35:06.035Z,66.30
2019-03-25T10:37:09.597Z,66.70
2019-03-25T10:39:12.412Z,66.00
2019-03-25T10:41:16.146Z,66.60
2019-03-25T10:43:19.749Z,66.90
2019-03-25T10:45:22.570Z,67.50
2019-03-25T10:47:26.136Z,66.50
2019-03-25T10:49:28.944Z,67.60
2019-03-25T10:51:32.499Z,68.70
2019-03-25T10:53:35.310Z,67.10
2019-03-25T10:55:38.991Z,68.60
2019-03-25T10:57:42.562Z,68.70
2019-03-25T10:59:45.338Z,68.70
2019-03-25T11:01:48.917Z,68.80
2019-03-25T11:03:51.689Z,68.70
2019-03-25T11:05:55.347Z,70.20
2019-03-25T11:07:58.898Z,69.00
2019-03-25T11:10:01.755Z,69.50
2019-03-25T11:12:05.443Z,71.30
2019-03-25T11:14:09.096Z,80.30
2019-03-25T11:16:12.713Z,80.70
2019-03-25T11:18:15.506Z,81.60
2019-03-25T11:20:19.217Z,84.50
2019-03-25T11:22:22.787Z,87.50
2019-03-25T11:24:25.594Z,91.00
2019-03-25T11:26:29.161Z,94.80
2019-03-25T11:28:31.968Z,95.40
2019-03-25T11:30:49.671Z,97.70
2019-03-25T11:32:53.268Z,98.40
2019-03-25T11:34:56.925Z,99.00
2019-03-25T11:37:00.522Z,99.80
2019-03-25T11:39:07.108Z,99.80
2019-03-25T11:41:10.688Z,99.80
2019-03-25T11:43:14.333Z,99.50
2019-03-25T11:45:18.827Z,99.10
2019-03-25T11:47:23.853Z,98.10
2019-03-25T11:49:27.709Z,97.90
2019-03-25T11:51:31.329Z,97.60
2019-03-25T11:53:35.003Z,96.90
2019-03-25T11:55:38.553Z,97.20
2019-03-25T11:57:41.350Z,96.50
2019-03-25T11:59:44.949Z,97.00
2019-03-25T12:01:48.572Z,96.60
2019-03-25T12:03:52.136Z,96.50
2019-03-25T12:05:54.949Z,96.70
2019-03-25T12:07:58.572Z,96.10
2019-03-25T12:10:02.220Z,94.80
2019-03-25T12:12:05.819Z,96.20
2019-03-25T12:14:09.514Z,95.00
2019-03-25T12:16:13.099Z,94.80
2019-03-25T12:18:16.650Z,95.50
2019-03-25T12:20:19.531Z,95.30
2019-03-25T12:22:23.137Z,95.20
2019-03-25T12:24:26.707Z,95.10
2019-03-25T12:26:29.493Z,95.20
2019-03-25T12:28:33.158Z,95.90
2019-03-25T12:30:36.709Z,97.00
2019-03-25T12:32:39.563Z,97.10
2019-03-25T12:34:43.190Z,97.60
2019-03-25T12:36:46.757Z,97.40
2019-03-25T12:38:49.611Z,97.70
2019-03-25T12:40:53.335Z,97.30
2019-03-25T12:42:56.977Z,98.40
2019-03-25T12:45:00.557Z,98.50
2019-03-25T12:47:03.703Z,97.30
2019-03-25T12:49:07.323Z,95.70
2019-03-25T12:51:10.875Z,95.20
2019-03-25T12:53:13.692Z,95.40
2019-03-25T12:55:17.251Z,94.40
2019-03-25T12:57:20.083Z,95.00
2019-03-25T12:59:23.720Z,94.50
2019-03-25T13:01:27.275Z,94.40
2019-03-25T13:03:30.075Z,94.40
2019-03-25T13:05:33.970Z,95.10
2019-03-25T13:07:37.628Z,94.40
2019-03-25T13:09:41.212Z,94.60
2019-03-25T13:11:43.994Z,93.50
2019-03-25T13:13:47.617Z,93.50
2019-03-25T13:15:51.248Z,93.60
2019-03-25T13:17:54.796Z,94.10
2019-03-25T13:19:57.606Z,93.80
2019-03-25T13:22:01.162Z,93.60
2019-03-25T13:24:04.051Z,93.00
2019-03-25T13:26:07.608Z,92.90
2019-03-25T13:28:10.386Z,93.10
2019-03-25T13:30:14.264Z,92.70
2019-03-25T13:32:17.830Z,92.30
2019-03-25T13:34:20.652Z,91.10
2019-03-25T13:36:24.212Z,91.40
2019-03-25T13:38:26.990Z,91.20
2019-03-25T13:40:30.660Z,91.00
2019-03-25T13:42:34.287Z,91.50
2019-03-25T13:44:37.851Z,91.10
2019-03-25T13:46:40.650Z,91.30
2019-03-25T13:48:44.217Z,91.00
2019-03-25T13:50:46.987Z,90.40
2019-03-25T13:52:50.634Z,91.10
2019-03-25T13:54:53.370Z,90.10
2019-03-25T13:56:57.032Z,90.90
2019-03-25T13:59:00.592Z,90.00
2019-03-25T14:01:03.659Z,89.10
2019-03-25T14:03:07.322Z,90.10
2019-03-25T14:05:11.129Z,90.40
2019-03-25T14:07:14.699Z,89.20
2019-03-25T14:09:17.514Z,88.90
2019-03-25T14:11:21.083Z,89.00
2019-03-25T14:13:24.116Z,89.80
2019-03-25T14:15:27.730Z,89.20
2019-03-25T14:17:30.508Z,88.30
2019-03-25T14:19:34.124Z,90.30
2019-03-25T14:21:36.903Z,90.00
2019-03-25T14:23:40.451Z,90.80
2019-03-25T14:25:43.247Z,91.00
2019-03-25T14:27:46.833Z,91.60
2019-03-25T14:29:49.617Z,91.50
2019-03-25T14:31:53.252Z,91.30
2019-03-25T14:33:56.810Z,90.40
2019-03-25T14:35:59.610Z,90.10
2019-03-25T14:38:03.188Z,91.00
2019-03-25T14:40:07.072Z,91.30
2019-03-25T14:42:10.663Z,91.40
2019-03-25T14:44:14.237Z,90.70
2019-03-25T14:46:17.011Z,90.70
2019-03-25T14:48:20.593Z,90.40
2019-03-25T14:50:23.403Z,89.80
2019-03-25T14:52:26.968Z,90.40
2019-03-25T14:54:29.796Z,90.20
2019-03-25T14:56:33.435Z,90.70
2019-03-25T14:58:36.988Z,90.40
2019-03-25T15:00:39.804Z,90.10
2019-03-25T15:02:43.366Z,91.10
2019-03-25T15:04:46.175Z,90.80
2019-03-25T15:06:49.734Z,90.10
2019-03-25T15:08:52.520Z,90.00
2019-03-25T15:10:56.107Z,90.50
2019-03-25T15:12:58.932Z,90.00
2019-03-25T15:15:02.441Z,90.00
2019-03-25T15:17:05.245Z,90.10
2019-03-25T15:19:08.972Z,90.00
2019-03-25T15:21:12.670Z,89.50
2019-03-25T15:23:16.318Z,89.90
2019-03-25T15:25:19.984Z,90.30
2019-03-25T15:27:23.640Z,90.70
2019-03-25T15:29:27.307Z,91.10
2019-03-25T15:31:30.864Z,92.30
2019-03-25T15:33:33.810Z,94.10
2019-03-25T15:35:37.442Z,94.40
2019-03-25T15:37:41.181Z,94.40
2019-03-25T15:39:46.955Z,94.70
2019-03-25T15:41:50.043Z,94.10
2019-03-25T15:43:53.639Z,93.70
2019-03-25T15:45:56.432Z,92.60
2019-03-25T15:47:59.971Z,92.40
2019-03-25T15:50:02.783Z,93.00
2019-03-25T15:52:06.423Z,92.50
2019-03-25T15:54:10.050Z,92.00
2019-03-25T15:56:13.698Z,91.90
2019-03-25T15:58:25.576Z,91.70
2019-03-25T16:00:24.406Z,91.60
2019-03-25T16:02:27.979Z,91.60
2019-03-25T16:04:31.800Z,91.70
2019-03-25T16:06:35.397Z,91.00
2019-03-25T16:08:38.403Z,90.90
2019-03-25T16:10:42.139Z,90.60
2019-03-25T16:12:46.656Z,90.60
2019-03-25T16:14:50.510Z,90.80
2019-03-25T16:16:54.075Z,90.40
2019-03-25T16:18:56.952Z,90.30
2019-03-25T16:21:00.890Z,90.00
2019-03-25T16:23:04.704Z,90.60
2019-03-25T16:25:08.467Z,90.40
2019-03-25T16:27:12.172Z,89.80
2019-03-25T16:29:17.970Z,90.10
2019-03-25T16:31:20.976Z,88.80
2019-03-25T16:33:23.746Z,88.60
2019-03-25T16:35:27.313Z,88.70
2019-03-25T16:37:30.138Z,87.50
2019-03-25T16:39:33.718Z,88.20
2019-03-25T16:41:36.508Z,88.60
2019-03-25T16:43:40.193Z,88.10
2019-03-25T16:45:43.763Z,89.00
2019-03-25T16:47:46.570Z,90.10
2019-03-25T16:49:50.143Z,89.30
2019-03-25T16:51:52.971Z,90.00
2019-03-25T16:53:56.571Z,89.60
2019-03-25T16:55:59.493Z,90.00
2019-03-25T16:58:03.076Z,89.80
2019-03-25T17:00:06.676Z,90.00
2019-03-25T17:02:10.342Z,90.10
2019-03-25T17:04:13.974Z,90.60
2019-03-25T17:06:17.541Z,90.70
2019-03-25T17:08:20.314Z,91.30
2019-03-25T17:10:23.911Z,91.40
2019-03-25T17:12:26.726Z,90.90
2019-03-25T17:14:30.351Z,91.30
2019-03-25T17:16:34.094Z,91.50
2019-03-25T17:18:37.663Z,91.30
2019-03-25T17:20:40.515Z,92.30
2019-03-25T17:22:44.118Z,94.20
2019-03-25T17:24:47.687Z,96.00
2019-03-25T17:26:50.519Z,97.70
2019-03-25T17:28:54.079Z,99.50
2019-03-25T17:30:57.635Z,99.60
2019-03-25T17:33:01.338Z,99.90
2019-03-25T17:35:07.056Z,99.90
2019-03-25T17:37:10.685Z,99.90
2019-03-25T17:39:14.353Z,99.90
2019-03-25T17:41:17.983Z,99.90
2019-03-25T17:43:21.655Z,99.90
2019-03-25T17:45:25.352Z,99.90
2019-03-25T17:47:28.985Z,99.90
2019-03-25T17:49:32.557Z,99.90
2019-03-25T17:51:36.121Z,99.90
2019-03-25T17:53:39.773Z,99.90
2019-03-25T17:55:43.335Z,99.90
2019-03-25T17:57:46.960Z,99.90
2019-03-25T17:59:50.999Z,99.90
2019-03-25T18:01:54.619Z,99.90
2019-03-25T18:03:58.265Z,99.90
2019-03-25T18:06:01.900Z,99.90
2019-03-25T18:08:05.601Z,99.90
2019-03-25T18:10:09.721Z,99.90
2019-03-25T18:12:13.292Z,99.90
2019-03-25T18:14:16.890Z,99.90
2019-03-25T18:16:20.622Z,99.90
2019-03-25T18:18:24.214Z,99.90
2019-03-25T18:20:27.916Z,99.90
2019-03-25T18:22:39.491Z,99.90
2019-03-25T18:24:37.079Z,99.90
2019-03-25T18:26:40.640Z,99.90
2019-03-25T18:28:44.327Z,99.90
2019-03-25T18:30:47.972Z,99.90
2019-03-25T18:32:51.601Z,99.90
2019-03-25T18:34:55.128Z,99.90
2019-03-25T18:36:58.792Z,99.90
2019-03-25T18:39:02.366Z,99.90
2019-03-25T18:41:06.126Z,99.90
2019-03-25T18:43:09.927Z,99.90
2019-03-25T18:45:13.559Z,99.90
2019-03-25T18:47:17.177Z,99.90
2019-03-25T18:49:20.784Z,99.90
2019-03-25T18:51:24.525Z,99.90
2019-03-25T18:53:28.683Z,99.90
2019-03-25T18:55:32.273Z,99.90
2019-03-25T18:57:36.376Z,99.90
2019-03-25T18:59:40.086Z,99.90
2019-03-25T19:01:53.837Z,99.90
2019-03-25T19:03:49.117Z,99.90
2019-03-25T19:05:53.438Z,99.90
2019-03-25T19:07:57.737Z,99.90
2019-03-25T19:10:02.407Z,99.90
2019-03-25T19:12:06.134Z,99.90
2019-03-25T19:14:09.768Z,99.90
2019-03-25T19:16:13.463Z,99.90
2019-03-25T19:18:20.226Z,99.90
2019-03-25T19:20:23.918Z,99.90
2019-03-25T19:22:27.700Z,99.90
2019-03-25T19:24:31.909Z,99.90
2019-03-25T19:26:35.624Z,99.90
2019-03-25T19:28:39.209Z,99.90
2019-03-25T19:30:42.788Z,99.90
2019-03-25T19:32:46.419Z,99.90
2019-03-25T19:34:50.090Z,99.90
2019-03-25T19:36:53.891Z,99.90
2019-03-25T19:38:57.712Z,99.90
2019-03-25T19:41:01.443Z,99.90
2019-03-25T19:43:05.237Z,99.90
2019-03-25T19:45:09.521Z,99.90
2019-03-25T19:47:13.312Z,99.90
2019-03-25T19:49:16.892Z,99.90
2019-03-25T19:51:20.495Z,99.90
2019-03-25T19:53:24.063Z,99.90
2019-03-25T19:55:27.640Z,99.90
2019-03-25T19:57:31.308Z,99.90
2019-03-25T19:59:34.911Z,99.90
2019-03-25T20:01:38.645Z,99.90
2019-03-25T20:03:42.163Z,99.90
2019-03-25T20:05:45.937Z,99.90
2019-03-25T20:07:49.605Z,99.90
2019-03-25T20:09:53.431Z,99.90
2019-03-25T20:11:57.072Z,99.90
2019-03-25T20:14:00.784Z,99.90
2019-03-25T20:16:04.447Z,99.90
2019-03-25T20:18:08.131Z,99.90
2019-03-25T20:20:12.061Z,99.90
2019-03-25T20:22:15.719Z,99.90
2019-03-25T20:24:19.287Z,99.90
2019-03-25T20:26:22.978Z,99.90
2019-03-25T20:28:26.878Z,99.90
2019-03-25T20:30:30.505Z,99.90
2019-03-25T20:32:34.069Z,99.90
2019-03-25T20:34:37.999Z,99.90
2019-03-25T20:36:41.671Z,99.90
2019-03-25T20:38:49.393Z,99.90
2019-03-25T20:40:50.530Z,99.90
2019-03-25T20:42:54.102Z,99.90
2019-03-25T20:44:57.814Z,99.90
2019-03-25T20:47:01.442Z,99.90
2019-03-25T20:49:05.084Z,99.90
2019-03-25T20:51:08.801Z,99.90
2019-03-25T20:53:12.435Z,99.90
2019-03-25T20:55:16.168Z,99.90
2019-03-25T20:57:19.857Z,99.90
2019-03-25T20:59:23.660Z,99.90
2019-03-25T21:01:27.417Z,99.90
2019-03-25T21:03:30.986Z,99.90
2019-03-25T21:05:34.668Z,99.90
2019-03-25T21:07:38.423Z,99.90
2019-03-25T21:09:42.009Z,99.90
2019-03-25T21:11:45.570Z,99.90
2019-03-25T21:13:49.221Z,99.90
2019-03-25T21:15:52.938Z,99.90
2019-03-25T21:17:56.486Z,99.90
2019-03-25T21:20:00.370Z,99.90
2019-03-25T21:22:04.107Z,99.90
2019-03-25T21:24:07.653Z,99.90
2019-03-25T21:26:11.399Z,99.90
2019-03-25T21:28:15.057Z,99.90
2019-03-25T21:30:18.767Z,99.90
2019-03-25T21:32:22.461Z,99.90
2019-03-25T21:34:26.090Z,99.90
2019-03-25T21:36:31.301Z,99.90
2019-03-25T21:38:35.017Z,99.90
2019-03-25T21:40:38.666Z,99.90
2019-03-25T21:42:42.317Z,99.90
2019-03-25T21:44:46.058Z,99.90
2019-03-25T21:46:50.828Z,99.90
2019-03-25T21:48:54.487Z,99.90
2019-03-25T21:50:58.113Z,99.90
2019-03-25T21:53:02.997Z,99.90
2019-03-25T21:55:07.655Z,99.90
2019-03-25T21:57:11.360Z,99.90
2019-03-25T21:59:14.871Z,99.90
2019-03-25T22:01:18.580Z,99.90
2019-03-25T22:03:22.109Z,99.90
2019-03-25T22:05:25.666Z,99.90
2019-03-25T22:07:29.236Z,99.90
2019-03-25T22:09:32.835Z,99.90
2019-03-25T22:11:36.397Z,99.90
2019-03-25T22:13:40.070Z,99.90
2019-03-25T22:15:43.723Z,99.90
2019-03-25T22:17:47.393Z,99.90
2019-03-25T22:19:51.060Z,99.90
2019-03-25T22:21:54.671Z,99.90
2019-03-25T22:23:58.244Z,99.90
2019-03-25T22:26:01.888Z,99.90
2019-03-25T22:28:05.613Z,99.90
2019-03-25T22:30:10.701Z,99.90
2019-03-25T22:32:14.298Z,99.90
2019-03-25T22:34:17.995Z,99.90
2019-03-25T22:36:21.570Z,99.90
2019-03-25T22:38:25.139Z,99.90
2019-03-25T22:40:28.807Z,99.90
2019-03-25T22:42:32.387Z,99.90
2019-03-25T22:44:35.966Z,99.90
2019-03-25T22:46:39.609Z,99.90
2019-03-25T22:48:43.273Z,99.90
2019-03-25T22:50:46.994Z,99.90
2019-03-25T22:52:50.552Z,99.90
2019-03-25T22:54:54.172Z,99.90
2019-03-25T22:56:57.950Z,99.90
2019-03-25T22:59:01.566Z,99.90
2019-03-25T23:01:10.118Z,99.90
2019-03-25T23:03:17.346Z,99.90
2019-03-25T23:05:22.449Z,99.90
2019-03-25T23:07:26.426Z,99.90
2019-03-25T23:09:30.542Z,99.90
2019-03-25T23:11:36.138Z,99.90
2019-03-25T23:13:41.400Z,99.90
2019-03-25T23:15:45.612Z,99.90
2019-03-25T23:17:49.836Z,99.90
2019-03-25T23:19:54.114Z,99.90
2019-03-25T23:21:58.090Z,99.90
2019-03-25T23:24:02.062Z,99.90
2019-03-25T23:26:07.400Z,99.90
2019-03-25T23:28:11.387Z,99.90
2019-03-25T23:30:15.703Z,99.90
2019-03-25T23:32:19.817Z,99.90
2019-03-25T23:34:23.394Z,99.90
2019-03-25T23:36:26.987Z,99.90
2019-03-25T23:38:30.552Z,99.90
2019-03-25T23:40:34.252Z,99.90
2019-03-25T23:42:37.811Z,99.90
2019-03-25T23:44:41.376Z,99.90
2019-03-25T23:46:45.011Z,99.90
2019-03-25T23:48:48.572Z,99.90
2019-03-25T23:50:52.190Z,99.90
2019-03-25T23:52:55.808Z,99.90
2019-03-25T23:54:59.560Z,99.90
2019-03-25T23:57:03.133Z,99.90
2019-03-25T23:59:06.693Z,99.90
